Time;durP1;ratioP1;P1;durP2;ratioP2;P2;SDS_P1;SDS_P2;PMS_P1;PMS_P2;Temp;Humidity;BMP_temperature;BMP_pressure;BME280_temperature;BME280_humidity;BME280_pressure;Samples;Min_cycle;Max_cycle;Signal;HPM_P1;HPM_P2
2022/04/20 00:02:17;;;;;;;;;;;;;;;-0.23;61.23;98516.05;108317;1279;22887;-73
2022/04/20 00:04:43;;;;;;;;;;;;;;;-0.23;61.40;98515.02;108358;1279;22607;-73
2022/04/20 00:07:10;;;;;;;;;;;;;;;-0.25;62.25;98520.02;108330;1279;22615;-73
2022/04/20 00:09:37;;;;;;;;;;;;;;;-0.28;63.35;98520.29;108331;1279;22521;-72
2022/04/20 00:12:04;;;;;;;;;;;;;;;-0.30;64.17;98515.71;108347;1279;22604;-72
2022/04/20 00:14:31;;;;;;;;;;;;;;;-0.32;64.28;98518.51;108398;1279;22590;-73
2022/04/20 00:16:58;;;;;;;;;;;;;;;-0.35;64.12;98514.45;108350;1279;22566;-74
2022/04/20 00:19:25;;;;;;;;;;;;;;;-0.38;63.83;98515.73;108338;1279;22556;-74
2022/04/20 00:21:52;;;;;;;;;;;;;;;-0.43;63.64;98512.91;108338;1279;22725;-73
2022/04/20 00:24:19;;;;;;;;;;;;;;;-0.48;63.55;98509.63;108332;1279;22616;-74
2022/04/20 00:26:46;;;;;;;;;;;;;;;-0.53;63.70;98507.86;108337;1279;22568;-74
2022/04/20 00:29:13;;;;;;;;;;;;;;;-0.55;63.67;98505.52;108331;1279;22616;-74
2022/04/20 00:31:40;;;;;;;;;;;;;;;-0.54;63.40;98502.59;108310;1279;22536;-74
2022/04/20 00:34:07;;;;;;;;;;;;;;;-0.53;64.26;98497.59;108328;1279;22672;-74
2022/04/20 00:36:34;;;;;;;;;;;;;;;-0.53;64.97;98494.69;108327;1279;22522;-73
2022/04/20 00:39:01;;;;;;;;;;;;;;;-0.56;65.55;98497.50;108350;1279;25285;-74
2022/04/20 00:41:28;;;;;;;;;;;;;;;-0.61;65.42;98497.60;108378;1279;22574;-79
2022/04/20 00:43:55;;;;;;;;;;;;;;;-0.66;65.37;98494.46;108327;1279;22531;-79
2022/04/20 00:46:24;;;;;;;;;;;;;;;-0.69;65.31;98494.88;108338;1279;22535;-73
2022/04/20 00:48:51;;;;;;;;;;;;;;;-0.72;65.21;98497.16;108312;1279;22673;-73
2022/04/20 00:51:19;;;;;;;;;;;;;;;-0.75;65.35;98494.52;108056;1279;22559;-73
2022/04/20 00:53:46;;;;;;;;;;;;;;;-0.79;65.00;98494.23;108056;1279;22568;-73
2022/04/20 00:56:13;;;;;;;;;;;;;;;-0.81;64.69;98494.63;108084;1279;23031;-73
2022/04/20 00:58:41;;;;;;;;;;;;;;;-0.80;64.96;98497.70;108110;1279;22855;-72
2022/04/20 01:01:08;;;;;;;;;;;;;;;-0.79;64.67;98491.15;108067;1279;22534;-73
2022/04/20 01:03:35;;;;;;;;;;;;;;;-0.77;65.54;98490.60;108163;1279;26669;-74
2022/04/20 01:06:02;;;;;;;;;;;;;;;-0.76;66.38;98489.39;108037;1279;22554;-74
2022/04/20 01:08:29;;;;;;;;;;;;;;;-0.76;66.92;98488.04;108081;1279;22572;-74
2022/04/20 01:10:56;;;;;;;;;;;;;;;-0.78;66.99;98490.61;108079;1279;23345;-74
2022/04/20 01:13:23;;;;;;;;;;;;;;;-0.80;66.63;98489.80;108057;1279;22677;-74
2022/04/20 01:15:50;;;;;;;;;;;;;;;-0.82;66.59;98490.21;108078;1279;24268;-74
2022/04/20 01:18:17;;;;;;;;;;;;;;;-0.84;66.27;98488.88;108079;1279;22683;-73
2022/04/20 01:20:44;;;;;;;;;;;;;;;-0.88;65.87;98488.95;108060;1279;22515;-73
2022/04/20 01:23:11;;;;;;;;;;;;;;;-0.93;65.81;98490.45;108095;1279;22674;-73
2022/04/20 01:25:38;;;;;;;;;;;;;;;-0.96;65.52;98491.02;108058;1279;22603;-71
2022/04/20 01:28:08;;;;;;;;;;;;;;;-0.96;65.41;98493.06;108055;1279;22547;-72
2022/04/20 01:30:35;;;;;;;;;;;;;;;-0.96;65.90;98490.84;108071;1279;22553;-73
2022/04/20 01:33:02;;;;;;;;;;;;;;;-0.94;66.57;98498.84;108089;1279;23070;-71
2022/04/20 01:35:29;;;;;;;;;;;;;;;-0.94;67.27;98502.60;108062;1279;22533;-75
2022/04/20 01:37:56;;;;;;;;;;;;;;;-0.94;67.47;98503.47;108028;1279;22536;-73
2022/04/20 01:40:23;;;;;;;;;;;;;;;-0.93;67.33;98497.13;108050;1279;23390;-75
2022/04/20 01:42:50;;;;;;;;;;;;;;;-0.92;67.11;98494.36;108095;1279;22518;-74
2022/04/20 01:45:16;;;;;;;;;;;;;;;-0.92;67.14;98490.95;108110;1279;22522;-72
2022/04/20 01:47:43;;;;;;;;;;;;;;;-0.91;66.70;98495.55;108100;1279;23271;-74
2022/04/20 01:50:10;;;;;;;;;;;;;;;-0.93;66.64;98490.79;108028;1279;22528;-71
2022/04/20 01:52:37;;;;;;;;;;;;;;;-0.94;66.19;98484.48;108054;1279;22531;-72
2022/04/20 01:55:04;;;;;;;;;;;;;;;-0.95;66.28;98486.39;108050;1279;22687;-73
2022/04/20 01:57:31;;;;;;;;;;;;;;;-0.97;66.16;98488.29;108067;1279;22615;-73
2022/04/20 01:59:57;;;;;;;;;;;;;;;-0.98;66.18;98489.53;107787;1279;415178;-72
2022/04/20 02:02:40;;;;;;;;;;;;;;;-0.98;66.06;98488.32;108001;1279;22594;-73
2022/04/20 02:05:08;;;;;;;;;;;;;;;-0.96;66.01;98485.89;108044;1279;22534;-72
2022/04/20 02:07:35;;;;;;;;;;;;;;;-0.95;66.65;98489.46;108066;1277;22532;-76
2022/04/20 02:10:03;;;;;;;;;;;;;;;-0.95;67.48;98490.16;108081;1279;27046;-73
2022/04/20 02:12:30;;;;;;;;;;;;;;;-0.97;68.11;98488.30;108066;1279;22661;-73
2022/04/20 02:14:57;;;;;;;;;;;;;;;-1.00;67.80;98488.38;108054;1279;24220;-74
2022/04/20 02:17:24;;;;;;;;;;;;;;;-1.04;67.71;98491.35;108063;1279;23304;-72
2022/04/20 02:19:51;;;;;;;;;;;;;;;-1.07;67.40;98490.76;108032;1279;22689;-73
2022/04/20 02:22:18;;;;;;;;;;;;;;;-1.12;67.19;98495.29;108090;1279;22707;-74
2022/04/20 02:24:44;;;;;;;;;;;;;;;-1.17;67.05;98490.27;108063;1279;22593;-72
2022/04/20 02:27:13;;;;;;;;;;;;;;;-1.22;66.99;98489.17;108052;1279;22545;-72
2022/04/20 02:29:40;;;;;;;;;;;;;;;-1.25;66.90;98487.19;108033;1279;22560;-75
2022/04/20 02:32:08;;;;;;;;;;;;;;;-1.26;66.97;98487.89;108052;1279;22675;-73
2022/04/20 02:34:35;;;;;;;;;;;;;;;-1.27;67.55;98486.89;108126;1279;22566;-74
2022/04/20 02:37:03;;;;;;;;;;;;;;;-1.29;68.35;98489.49;108042;1279;24884;-72
2022/04/20 02:39:29;;;;;;;;;;;;;;;-1.32;68.43;98492.95;108060;1279;22518;-72
2022/04/20 02:41:57;;;;;;;;;;;;;;;-1.35;68.60;98491.15;108058;1279;22530;-75
2022/04/20 02:44:23;;;;;;;;;;;;;;;-1.38;68.23;98487.27;108072;1279;22600;-75
2022/04/20 02:46:50;;;;;;;;;;;;;;;-1.41;67.91;98485.79;108076;1279;22685;-74
2022/04/20 02:49:17;;;;;;;;;;;;;;;-1.45;67.93;98484.02;108047;1279;23352;-75
2022/04/20 02:51:44;;;;;;;;;;;;;;;-1.50;67.80;98476.73;108048;1279;22503;-73
2022/04/20 02:54:11;;;;;;;;;;;;;;;-1.54;67.81;98470.50;108071;1279;22520;-73
2022/04/20 02:56:38;;;;;;;;;;;;;;;-1.55;67.36;98472.23;108066;1279;22518;-71
2022/04/20 02:59:05;;;;;;;;;;;;;;;-1.55;67.63;98476.68;108090;1279;22531;-75
2022/04/20 03:01:31;;;;;;;;;;;;;;;-1.57;68.41;98471.92;108036;1279;23017;-74
2022/04/20 03:03:58;;;;;;;;;;;;;;;-1.59;69.25;98464.80;108039;1279;25148;-73
2022/04/20 03:06:28;;;;;;;;;;;;;;;-1.65;69.46;98466.63;108033;1279;22680;-72
2022/04/20 03:08:55;;;;;;;;;;;;;;;-1.71;69.52;98468.78;108056;1279;22531;-72
2022/04/20 03:11:22;;;;;;;;;;;;;;;-1.78;69.36;98473.69;108077;1279;24285;-73
2022/04/20 03:13:49;;;;;;;;;;;;;;;-1.83;69.08;98473.11;108056;1279;22582;-71
2022/04/20 03:16:16;;;;;;;;;;;;;;;-1.89;68.89;98471.00;108039;1277;22520;-72
2022/04/20 03:18:43;;;;;;;;;;;;;;;-1.93;68.79;98477.20;108035;1279;22651;-72
2022/04/20 03:21:10;;;;;;;;;;;;;;;-1.92;68.70;98472.24;108067;1279;22530;-74
2022/04/20 03:23:37;;;;;;;;;;;;;;;-1.90;68.79;98472.55;108083;1279;22549;-75
2022/04/20 03:26:04;;;;;;;;;;;;;;;-1.90;69.58;98469.98;108032;1279;22556;-76
2022/04/20 03:28:30;;;;;;;;;;;;;;;-1.91;70.10;98465.40;108043;1279;22557;-76
2022/04/20 03:30:57;;;;;;;;;;;;;;;-1.94;69.97;98464.23;108032;1279;22558;-73
2022/04/20 03:33:24;;;;;;;;;;;;;;;-1.96;69.76;98457.61;108069;1279;22533;-72
2022/04/20 03:35:51;;;;;;;;;;;;;;;-1.97;69.85;98457.48;108111;1279;22530;-72
2022/04/20 03:38:18;;;;;;;;;;;;;;;-1.98;69.39;98454.95;108047;1279;22658;-73
2022/04/20 03:40:45;;;;;;;;;;;;;;;-1.98;69.08;98452.56;108016;1279;22712;-74
2022/04/20 03:43:13;;;;;;;;;;;;;;;-1.99;69.40;98451.89;108144;1279;22654;-73
2022/04/20 03:45:40;;;;;;;;;;;;;;;-1.97;69.03;98456.30;108050;1279;22657;-71
2022/04/20 03:48:07;;;;;;;;;;;;;;;-1.93;68.70;98458.42;108066;1279;22633;-74
2022/04/20 03:50:34;;;;;;;;;;;;;;;-1.91;69.39;98458.05;108042;1279;22530;-76
2022/04/20 03:53:01;;;;;;;;;;;;;;;-1.91;69.80;98454.48;108033;1279;22600;-75
2022/04/20 03:55:28;;;;;;;;;;;;;;;-1.92;70.57;98454.66;108043;1279;22663;-73
2022/04/20 03:57:55;;;;;;;;;;;;;;;-1.94;70.61;98456.73;108066;1279;22525;-73
2022/04/20 04:00:23;;;;;;;;;;;;;;;-1.96;70.39;98457.45;108058;1279;22624;-74
2022/04/20 04:02:50;;;;;;;;;;;;;;;-1.96;70.09;98461.88;108009;1279;22689;-74
2022/04/20 04:05:18;;;;;;;;;;;;;;;-1.94;70.16;98462.38;108052;1279;22606;-73
2022/04/20 04:07:45;;;;;;;;;;;;;;;-1.92;70.00;98466.79;108059;1279;22658;-74
2022/04/20 04:10:12;;;;;;;;;;;;;;;-1.89;70.10;98467.94;108049;1279;22533;-71
2022/04/20 04:12:39;;;;;;;;;;;;;;;-1.82;70.07;98464.73;108060;1279;23472;-72
2022/04/20 04:15:06;;;;;;;;;;;;;;;-1.75;70.43;98465.95;108052;1279;22726;-71
2022/04/20 04:17:33;;;;;;;;;;;;;;;-1.68;71.33;98467.36;108052;1279;22600;-74
2022/04/20 04:20:01;;;;;;;;;;;;;;;-1.62;72.08;98468.95;108062;1279;22621;-71
2022/04/20 04:22:27;;;;;;;;;;;;;;;-1.58;72.31;98472.46;108054;1279;22682;-71
2022/04/20 04:24:56;;;;;;;;;;;;;;;-1.55;72.15;98470.52;108052;1279;22568;-73
2022/04/20 04:27:23;;;;;;;;;;;;;;;-1.53;72.02;98471.84;108052;1279;22688;-72
2022/04/20 04:29:50;;;;;;;;;;;;;;;-1.50;71.70;98474.34;108056;1279;22713;-72
2022/04/20 04:32:17;;;;;;;;;;;;;;;-1.47;71.35;98471.23;108054;1279;24244;-72
2022/04/20 04:34:44;;;;;;;;;;;;;;;-1.42;71.32;98474.02;108052;1279;22578;-72
2022/04/20 04:37:13;;;;;;;;;;;;;;;-1.35;71.38;98477.30;108048;1279;24273;-72
2022/04/20 04:39:40;;;;;;;;;;;;;;;-1.28;72.01;98475.63;108045;1278;23008;-73
2022/04/20 04:42:07;;;;;;;;;;;;;;;-1.22;72.53;98477.73;108032;1279;22517;-71
2022/04/20 04:44:34;;;;;;;;;;;;;;;-1.17;72.92;98475.58;108041;1279;24283;-71
2022/04/20 04:49:47;;;;;;;;;;;;;;;-1.05;72.50;98480.45;108027;1279;22600;-71
2022/04/20 04:52:14;;;;;;;;;;;;;;;-0.97;72.07;98483.19;108060;1279;22533;-71
2022/04/20 04:54:41;;;;;;;;;;;;;;;-0.89;71.97;98481.48;108037;1279;22678;-70
2022/04/20 04:57:08;;;;;;;;;;;;;;;-0.80;71.78;98476.48;108038;1279;22561;-71
2022/04/20 04:59:39;;;;;;;;;;;;;;;-0.69;72.07;98475.73;108041;1279;22520;-71
2022/04/20 05:02:06;;;;;;;;;;;;;;;-0.58;72.61;98481.11;108119;1279;22613;-71
2022/04/20 05:04:37;;;;;;;;;;;;;;;-0.49;73.31;98478.85;108063;1279;22515;-71
2022/04/20 05:07:04;;;;;;;;;;;;;;;-0.41;73.54;98480.55;108046;1279;22793;-71
2022/04/20 05:09:31;;;;;;;;;;;;;;;-0.35;73.35;98479.55;108062;1279;22549;-71
2022/04/20 05:11:58;;;;;;;;;;;;;;;-0.29;73.12;98478.20;108049;1279;23134;-71
2022/04/20 05:14:25;;;;;;;;;;;;;;;-0.24;72.84;98475.52;108054;1279;24226;-71
2022/04/20 05:16:52;;;;;;;;;;;;;;;-0.19;72.73;98475.57;108047;1279;22604;-71
2022/04/20 05:19:19;;;;;;;;;;;;;;;-0.11;72.55;98474.17;108052;1279;22629;-72
2022/04/20 05:21:46;;;;;;;;;;;;;;;-0.02;72.92;98474.64;108027;1279;22648;-71
2022/04/20 05:24:14;;;;;;;;;;;;;;;0.05;73.39;98478.92;108007;1279;24419;-71
2022/04/20 05:26:40;;;;;;;;;;;;;;;0.11;73.89;98482.67;108024;1279;22700;-71
2022/04/20 05:29:07;;;;;;;;;;;;;;;0.17;74.18;98486.12;108062;1279;22557;-71
2022/04/20 05:31:34;;;;;;;;;;;;;;;0.24;73.88;98484.59;108000;1279;22524;-71
2022/04/20 05:34:02;;;;;;;;;;;;;;;0.31;73.58;98477.19;108055;1279;22664;-71
2022/04/20 05:41:39;;;;;;;;;;;;;;;0.42;73.27;98475.88;108082;1279;22559;-71
2022/04/20 05:42:02;;;;;;;;;;;;;;;0.75;73.13;98467.92;108020;1279;25279;-71
2022/04/20 05:44:29;;;;;;;;;;;;;;;0.90;73.93;98466.98;108044;1279;22521;-72
2022/04/20 05:46:56;;;;;;;;;;;;;;;1.01;74.51;98467.17;108039;1279;22659;-72
2022/04/20 05:49:24;;;;;;;;;;;;;;;1.10;74.50;98462.95;108018;1279;22521;-71
2022/04/20 05:51:51;;;;;;;;;;;;;;;1.17;74.25;98459.85;108084;1279;22548;-71
2022/04/20 05:54:18;;;;;;;;;;;;;;;1.23;73.95;98458.63;108034;1279;22519;-71
2022/04/20 05:56:45;;;;;;;;;;;;;;;1.28;73.80;98455.20;108042;1279;22610;-71
2022/04/20 05:59:11;;;;;;;;;;;;;;;1.37;73.74;98455.79;108045;1279;22603;-71
2022/04/20 06:01:38;;;;;;;;;;;;;;;1.44;73.56;98458.81;108046;1279;22583;-71
2022/04/20 06:04:05;;;;;;;;;;;;;;;1.56;73.29;98453.30;108046;1279;22629;-71
2022/04/20 06:06:32;;;;;;;;;;;;;;;1.66;73.38;98458.13;108036;1279;22710;-72
2022/04/20 06:08:59;;;;;;;;;;;;;;;1.79;73.83;98455.14;108050;1279;22529;-72
2022/04/20 06:11:28;;;;;;;;;;;;;;;1.89;74.28;98451.87;108043;1279;22777;-74
2022/04/20 06:13:55;;;;;;;;;;;;;;;1.99;74.13;98456.02;108043;1279;22571;-73
2022/04/20 06:16:22;;;;;;;;;;;;;;;2.08;73.74;98455.05;108048;1279;22532;-72
2022/04/20 06:18:48;;;;;;;;;;;;;;;2.11;73.42;98457.84;108092;1278;22516;-72
2022/04/20 06:21:15;;;;;;;;;;;;;;;2.12;73.16;98456.60;108054;1278;22541;-73
2022/04/20 06:23:42;;;;;;;;;;;;;;;2.17;72.70;98455.06;108047;1279;22713;-72
2022/04/20 06:26:10;;;;;;;;;;;;;;;2.21;72.68;98453.21;108028;1279;24442;-74
2022/04/20 06:28:37;;;;;;;;;;;;;;;2.25;72.61;98452.38;108067;1279;22548;-74
2022/04/20 06:31:05;;;;;;;;;;;;;;;2.29;72.68;98448.30;108033;1279;22581;-75
2022/04/20 06:33:32;;;;;;;;;;;;;;;2.36;72.18;98445.30;108058;1279;22685;-72
2022/04/20 06:36:00;;;;;;;;;;;;;;;2.38;71.86;98446.95;108037;1279;22541;-72
2022/04/20 06:38:27;;;;;;;;;;;;;;;2.38;71.87;98445.21;108022;1279;22712;-70
2022/04/20 06:40:54;;;;;;;;;;;;;;;2.37;71.72;98444.92;108067;1278;22603;-70
2022/04/20 06:43:21;;;;;;;;;;;;;;;2.40;71.59;98440.17;108063;1279;25345;-70
2022/04/20 06:45:48;;;;;;;;;;;;;;;2.46;71.50;98435.30;108029;1279;22538;-70
2022/04/20 06:48:15;;;;;;;;;;;;;;;2.55;72.05;98436.55;108029;1279;24905;-70
2022/04/20 06:50:43;;;;;;;;;;;;;;;2.61;72.59;98434.40;108049;1279;23739;-70
2022/04/20 06:58:44;;;;;;;;;;;;;;;2.80;72.17;98428.38;108048;1278;22640;-72
2022/04/20 07:01:14;;;;;;;;;;;;;;;2.84;71.92;98422.56;108019;1279;24281;-70
2022/04/20 07:03:42;;;;;;;;;;;;;;;2.89;71.69;98419.47;108042;1279;22529;-71
2022/04/20 07:06:09;;;;;;;;;;;;;;;2.94;71.48;98420.98;108083;1279;22861;-71
2022/04/20 07:08:36;;;;;;;;;;;;;;;2.96;71.19;98416.60;108045;1279;22655;-71
2022/04/20 07:11:04;;;;;;;;;;;;;;;3.00;71.17;98418.17;108045;1279;22539;-70
2022/04/20 07:13:31;;;;;;;;;;;;;;;3.05;71.03;98415.27;108003;1279;22636;-72
2022/04/20 07:15:58;;;;;;;;;;;;;;;3.15;70.81;98417.27;108051;1279;22521;-70
2022/04/20 07:18:25;;;;;;;;;;;;;;;3.23;71.28;98416.41;108078;1279;22600;-71
2022/04/20 07:20:52;;;;;;;;;;;;;;;3.33;71.83;98410.87;108052;1279;22520;-70
2022/04/20 07:23:19;;;;;;;;;;;;;;;3.43;72.12;98408.74;108031;1279;22674;-70
2022/04/20 07:25:46;;;;;;;;;;;;;;;3.53;71.84;98408.20;108002;1279;22613;-70
2022/04/20 07:28:13;;;;;;;;;;;;;;;3.62;71.42;98403.69;108036;1279;22546;-69
2022/04/20 07:30:40;;;;;;;;;;;;;;;3.70;71.24;98403.02;108062;1279;22562;-70
2022/04/20 07:33:07;;;;;;;;;;;;;;;3.74;70.84;98404.37;108064;1279;22602;-70
2022/04/20 07:35:33;;;;;;;;;;;;;;;3.77;70.76;98403.55;108044;1279;22520;-70
2022/04/20 07:38:00;;;;;;;;;;;;;;;3.76;70.43;98397.40;108023;1279;24338;-71
2022/04/20 07:40:27;;;;;;;;;;;;;;;3.74;70.32;98397.99;108049;1279;22551;-70
2022/04/20 07:42:55;;;;;;;;;;;;;;;3.78;70.30;98391.81;108072;1279;22541;-71
2022/04/20 07:45:25;;;;;;;;;;;;;;;3.80;70.02;98391.39;108071;1279;24211;-71
2022/04/20 07:47:54;;;;;;;;;;;;;;;3.83;69.99;98391.61;108033;1279;22531;-72
2022/04/20 07:50:24;;;;;;;;;;;;;;;3.83;69.86;98387.50;108101;1279;22517;-71
2022/04/20 07:52:56;;;;;;;;;;;;;;;3.86;69.94;98387.86;108028;1281;22578;-71
2022/04/20 07:55:24;;;;;;;;;;;;;;;3.92;69.86;98384.69;108064;1281;22672;-69
2022/04/20 07:57:51;;;;;;;;;;;;;;;3.98;69.83;98384.60;108040;1279;22558;-75
2022/04/20 08:00:18;;;;;;;;;;;;;;;4.05;69.69;98381.86;108002;1281;22549;-71
2022/04/20 08:02:46;;;;;;;;;;;;;;;4.13;69.61;98380.16;108013;1280;22538;-71
2022/04/20 08:05:14;;;;;;;;;;;;;;;4.20;69.60;98377.11;108049;1279;24477;-72
2022/04/20 08:07:42;;;;;;;;;;;;;;;4.23;69.18;98379.23;108091;1280;22584;-72
2022/04/20 08:10:10;;;;;;;;;;;;;;;4.22;68.94;98378.39;108055;1281;22679;-71
2022/04/20 08:12:41;;;;;;;;;;;;;;;4.23;68.80;98377.50;108045;1281;22554;-78
2022/04/20 08:15:08;;;;;;;;;;;;;;;4.24;68.89;98375.04;108000;1281;23369;-71
2022/04/20 08:17:35;;;;;;;;;;;;;;;4.31;68.80;98375.77;108054;1279;24282;-72
2022/04/20 08:20:03;;;;;;;;;;;;;;;4.34;68.85;98371.16;108038;1279;22692;-72
2022/04/20 08:22:30;;;;;;;;;;;;;;;4.41;69.07;98369.96;108025;1280;22645;-71
2022/04/20 08:24:57;;;;;;;;;;;;;;;4.46;70.04;98369.09;108032;1281;22691;-70
2022/04/20 08:27:24;;;;;;;;;;;;;;;4.53;69.93;98367.71;108046;1281;22543;-70
2022/04/20 08:29:51;;;;;;;;;;;;;;;4.62;69.41;98365.59;108048;1279;22518;-71
2022/04/20 08:32:19;;;;;;;;;;;;;;;4.67;69.10;98363.09;108038;1279;22624;-71
2022/04/20 08:34:48;;;;;;;;;;;;;;;4.80;68.73;98359.08;108065;1279;22516;-72
2022/04/20 08:37:16;;;;;;;;;;;;;;;4.87;68.36;98360.45;108065;1279;24130;-71
2022/04/20 08:39:43;;;;;;;;;;;;;;;4.91;67.89;98356.64;108237;1281;22650;-71
2022/04/20 08:42:12;;;;;;;;;;;;;;;4.97;67.79;98355.84;108326;1278;22595;-75
2022/04/20 08:44:42;;;;;;;;;;;;;;;5.05;67.32;98354.41;108261;1281;22697;-70
2022/04/20 08:47:12;;;;;;;;;;;;;;;5.09;67.51;98350.95;108280;1279;22531;-70
2022/04/20 08:49:42;;;;;;;;;;;;;;;5.14;66.98;98350.04;108324;1281;22556;-70
2022/04/20 08:54:56;;;;;;;;;;;;;;;5.25;66.91;98350.89;108333;1281;22550;-70
2022/04/20 08:57:24;;;;;;;;;;;;;;;5.28;66.70;98350.91;108334;1280;26621;-73
2022/04/20 08:59:51;;;;;;;;;;;;;;;5.30;66.39;98346.49;108357;1281;22520;-71
2022/04/20 09:02:19;;;;;;;;;;;;;;;5.27;66.50;98347.52;108344;1280;22532;-70
2022/04/20 09:04:47;;;;;;;;;;;;;;;5.33;66.46;98345.34;108357;1281;22620;-72
2022/04/20 09:07:15;;;;;;;;;;;;;;;5.36;66.26;98349.48;108342;1281;22604;-71
2022/04/20 09:09:41;;;;;;;;;;;;;;;5.46;65.99;98344.66;108324;1281;22533;-71
2022/04/20 09:12:14;;;;;;;;;;;;;;;5.47;65.78;98342.56;108331;1279;22521;-76
2022/04/20 09:14:43;;;;;;;;;;;;;;;5.49;65.86;98340.02;108350;1281;24381;-71
2022/04/20 09:17:11;;;;;;;;;;;;;;;5.53;65.58;98338.84;108347;1281;22521;-70
2022/04/20 09:19:39;;;;;;;;;;;;;;;5.54;65.65;98339.10;108334;1281;22597;-71
2022/04/20 09:22:19;;;;;;;;;;;;;;;5.64;65.69;98336.87;108344;1281;22524;-70
2022/04/20 09:24:59;;;;;;;;;;;;;;;5.72;65.35;98335.61;108349;1280;22574;-73
2022/04/20 09:27:26;;;;;;;;;;;;;;;5.82;65.42;98334.98;108329;1281;25268;-75
2022/04/20 09:29:54;;;;;;;;;;;;;;;5.93;65.70;98335.76;108351;1281;22541;-75
2022/04/20 09:32:30;;;;;;;;;;;;;;;6.04;66.01;98335.38;108330;1279;22598;-71
2022/04/20 09:34:58;;;;;;;;;;;;;;;6.18;66.24;98332.23;108340;1281;22558;-70
2022/04/20 09:37:26;;;;;;;;;;;;;;;6.34;66.05;98329.30;108335;1281;22607;-73
2022/04/20 09:39:53;;;;;;;;;;;;;;;6.49;65.33;98327.66;108357;1280;22604;-72
2022/04/20 09:42:20;;;;;;;;;;;;;;;6.58;64.78;98324.94;108362;1281;25392;-73
2022/04/20 09:45:00;;;;;;;;;;;;;;;6.65;64.46;98325.04;108348;1279;22534;-71
2022/04/20 09:50:19;;;;;;;;;;;;;;;6.79;63.75;98320.83;108354;1280;24260;-72
2022/04/20 09:52:50;;;;;;;;;;;;;;;6.81;63.56;98319.89;108348;1279;22681;-73
2022/04/20 09:55:26;;;;;;;;;;;;;;;6.85;63.11;98323.63;108355;1280;25421;-73
2022/04/20 09:58:08;;;;;;;;;;;;;;;6.86;62.79;98319.55;108345;1280;22561;-71
2022/04/20 10:00:39;;;;;;;;;;;;;;;6.93;62.58;98320.77;108348;1279;22592;-71
2022/04/20 10:03:07;;;;;;;;;;;;;;;7.00;62.88;98321.21;108376;1281;25412;-72
2022/04/20 10:05:36;;;;;;;;;;;;;;;7.06;62.70;98319.34;108343;1281;22533;-72
2022/04/20 10:08:05;;;;;;;;;;;;;;;7.16;62.27;98313.92;108351;1281;22621;-70
2022/04/20 10:10:35;;;;;;;;;;;;;;;7.20;61.67;98312.52;108375;1281;22532;-72
2022/04/20 10:13:03;;;;;;;;;;;;;;;7.20;61.40;98311.65;108368;1279;22607;-71
2022/04/20 10:18:20;;;;;;;;;;;;;;;7.36;60.65;98306.04;108366;1279;22545;-71
2022/04/20 10:20:48;;;;;;;;;;;;;;;7.36;60.68;98301.48;108324;1280;22524;-72
2022/04/20 10:23:17;;;;;;;;;;;;;;;7.43;60.85;98298.15;108358;1279;22536;-71
2022/04/20 10:25:45;;;;;;;;;;;;;;;7.61;60.40;98296.09;108338;1281;22675;-72
2022/04/20 10:28:30;;;;;;;;;;;;;;;7.69;60.26;98291.63;108350;1279;24227;-72
2022/04/20 10:31:11;;;;;;;;;;;;;;;7.82;59.70;98288.27;108323;1279;22620;-73
2022/04/20 10:33:39;;;;;;;;;;;;;;;7.92;59.60;98286.30;108330;1280;22697;-74
2022/04/20 10:36:11;;;;;;;;;;;;;;;8.13;59.02;98279.77;108354;1279;22524;-72
2022/04/20 10:38:39;;;;;;;;;;;;;;;8.39;59.04;98278.70;108324;1279;22676;-72
2022/04/20 10:41:10;;;;;;;;;;;;;;;8.74;58.66;98270.64;108325;1279;22565;-76
2022/04/20 10:43:42;;;;;;;;;;;;;;;9.08;58.64;98265.86;108350;1279;22537;-77
2022/04/20 10:46:11;;;;;;;;;;;;;;;9.36;57.77;98266.77;108322;1281;22531;-72
2022/04/20 10:48:44;;;;;;;;;;;;;;;9.50;56.73;98265.85;108354;1279;23400;-72
2022/04/20 10:51:14;;;;;;;;;;;;;;;9.51;55.50;98268.05;108381;1279;22527;-72
2022/04/20 10:53:46;;;;;;;;;;;;;;;9.38;55.73;98269.55;108329;1279;22531;-72
2022/04/20 10:56:13;;;;;;;;;;;;;;;9.28;55.95;98271.45;108340;1279;22677;-70
2022/04/20 10:58:52;;;;;;;;;;;;;;;9.06;55.45;98267.73;108364;1279;22857;-70
2022/04/20 11:01:19;;;;;;;;;;;;;;;8.83;55.90;98268.34;108349;1279;22532;-70
2022/04/20 11:03:58;;;;;;;;;;;;;;;8.72;55.79;98273.21;108325;1279;22673;-70
2022/04/20 11:06:28;;;;;;;;;;;;;;;8.55;55.74;98274.79;108336;1279;22545;-70
2022/04/20 11:08:59;;;;;;;;;;;;;;;8.36;56.22;98271.79;108346;1279;22530;-69
2022/04/20 11:20:10;;;;;;;;;;;;;;;8.40;56.92;98281.09;108336;1279;22512;-72
2022/04/20 11:22:46;;;;;;;;;;;;;;;8.42;56.82;98284.45;108347;1279;22544;-72
2022/04/20 11:25:13;;;;;;;;;;;;;;;8.46;56.95;98278.67;108349;1279;22560;-71
2022/04/20 11:27:40;;;;;;;;;;;;;;;8.54;56.75;98277.77;108367;1279;22542;-72
2022/04/20 11:30:07;;;;;;;;;;;;;;;8.58;56.73;98281.49;108340;1279;22534;-72
2022/04/20 11:32:34;;;;;;;;;;;;;;;8.58;56.63;98277.52;108388;1279;22567;-72
2022/04/20 11:35:11;;;;;;;;;;;;;;;8.54;56.27;98273.62;108331;1279;22531;-76
2022/04/20 11:37:39;;;;;;;;;;;;;;;8.43;56.60;98272.74;108358;1279;22609;-72
2022/04/20 11:40:12;;;;;;;;;;;;;;;8.36;56.47;98277.17;108341;1279;22679;-72
2022/04/20 11:42:40;;;;;;;;;;;;;;;8.22;56.55;98274.69;108345;1279;23367;-72
2022/04/20 11:45:07;;;;;;;;;;;;;;;8.17;56.98;98273.81;108349;1279;22612;-72
2022/04/20 11:47:38;;;;;;;;;;;;;;;8.13;56.97;98273.05;108354;1279;25315;-72
2022/04/20 11:50:08;;;;;;;;;;;;;;;8.09;57.39;98271.38;108340;1279;22607;-72
2022/04/20 11:52:35;;;;;;;;;;;;;;;8.10;57.11;98267.84;108316;1279;22614;-72
2022/04/20 11:55:05;;;;;;;;;;;;;;;8.10;57.32;98266.09;108357;1279;25470;-72
2022/04/20 11:57:33;;;;;;;;;;;;;;;8.05;57.35;98267.41;108343;1279;22675;-76
2022/04/20 12:00:00;;;;;;;;;;;;;;;8.03;57.17;98265.70;108334;1279;24940;-75
2022/04/20 12:02:27;;;;;;;;;;;;;;;8.01;57.48;98268.03;108342;1279;22598;-72
2022/04/20 12:05:07;;;;;;;;;;;;;;;8.04;57.44;98268.70;108348;1279;22531;-72
2022/04/20 12:07:35;;;;;;;;;;;;;;;8.01;57.24;98268.55;108343;1277;22598;-72
2022/04/20 12:10:02;;;;;;;;;;;;;;;7.95;57.21;98267.86;108354;1279;22604;-72
2022/04/20 12:12:30;;;;;;;;;;;;;;;7.83;57.48;98265.96;108345;1279;22598;-76
2022/04/20 12:15:08;;;;;;;;;;;;;;;7.74;57.62;98268.81;108335;1279;23959;-72
2022/04/20 12:17:35;;;;;;;;;;;;;;;7.63;57.76;98268.74;108293;1279;22708;-72
2022/04/20 12:20:03;;;;;;;;;;;;;;;7.53;58.04;98266.57;108323;1279;22528;-72
2022/04/20 12:22:30;;;;;;;;;;;;;;;7.47;58.20;98264.14;108357;1279;22624;-78
2022/04/20 12:25:04;;;;;;;;;;;;;;;7.43;58.06;98260.59;108358;1279;22542;-78
2022/04/20 12:27:31;;;;;;;;;;;;;;;7.37;58.37;98261.12;108345;1279;22530;-76
2022/04/20 12:29:58;;;;;;;;;;;;;;;7.32;58.45;98262.75;108355;1279;22625;-74
2022/04/20 12:32:27;;;;;;;;;;;;;;;7.23;58.72;98265.39;108309;1279;22528;-73
2022/04/20 12:34:54;;;;;;;;;;;;;;;7.15;58.92;98266.33;108312;1279;23928;-72
2022/04/20 12:37:29;;;;;;;;;;;;;;;7.10;59.18;98263.67;108335;1279;22534;-72
2022/04/20 12:39:56;;;;;;;;;;;;;;;7.06;59.22;98264.64;108356;1279;22581;-72
2022/04/20 12:42:23;;;;;;;;;;;;;;;7.04;58.99;98265.06;108364;1279;24323;-72
2022/04/20 12:44:51;;;;;;;;;;;;;;;7.02;59.31;98264.14;108347;1279;25236;-71
2022/04/20 12:47:19;;;;;;;;;;;;;;;6.96;59.45;98267.41;108357;1279;22555;-75
2022/04/20 12:49:51;;;;;;;;;;;;;;;6.90;59.66;98269.66;108356;1279;22540;-71
2022/04/20 12:52:19;;;;;;;;;;;;;;;6.88;59.57;98267.52;108329;1279;24393;-73
2022/04/20 12:55:06;;;;;;;;;;;;;;;6.84;60.09;98269.83;108301;1279;22611;-78
2022/04/20 13:03:12;;;;;;;;;;;;;;;6.65;60.90;98271.44;108292;1279;22856;-72
2022/04/20 13:05:40;;;;;;;;;;;;;;;6.61;61.17;98273.56;108288;1279;25253;-76
2022/04/20 13:08:08;;;;;;;;;;;;;;;6.59;61.02;98268.64;108336;1279;24274;-75
2022/04/20 13:10:35;;;;;;;;;;;;;;;6.54;61.58;98269.09;108315;1279;22620;-71
2022/04/20 13:13:02;;;;;;;;;;;;;;;6.47;61.82;98268.96;108315;1279;22604;-71
2022/04/20 13:15:30;;;;;;;;;;;;;;;6.41;62.56;98275.66;108321;1279;22537;-70
2022/04/20 13:17:57;;;;;;;;;;;;;;;6.39;62.58;98280.25;108342;1279;22524;-75
2022/04/20 13:20:28;;;;;;;;;;;;;;;6.41;62.40;98281.56;108370;1279;24724;-79
2022/04/20 13:22:55;;;;;;;;;;;;;;;6.41;63.29;98282.06;108365;1279;22549;-72